Time;durP1;ratioP1;P1;durP2;ratioP2;P2;SDS_P1;SDS_P2;PMS_P1;PMS_P2;Temp;Humidity;BMP_temperature;BMP_pressure;BME280_temperature;BME280_humidity;BME280_pressure;Samples;Min_cycle;Max_cycle;Signal;HPM_P1;HPM_P2
2022/11/29 00:02:20;;;;;;;16.83;11.88;;;;;;;;;;5221149;28;20481;-74
2022/11/29 00:04:51;;;;;;;12.68;10.98;;;;;;;;;;5220059;28;20021;-74
2022/11/29 00:07:22;;;;;;;16.17;11.10;;;;;;;;;;5220808;28;20034;-73
2022/11/29 00:09:53;;;;;;;13.63;11.40;;;;;;;;;;5220764;28;20028;-73
2022/11/29 00:12:24;;;;;;;14.18;10.58;;;;;;;;;;5219996;28;20030;-73
2022/11/29 00:14:55;;;;;;;12.76;11.22;;;;;;;;;;5220663;28;20017;-73
2022/11/29 00:17:27;;;;;;;14.63;10.40;;;;;;;;;;5220692;28;20025;-73
2022/11/29 00:19:58;;;;;;;13.52;10.65;;;;;;;;;;5219758;28;20491;-74
2022/11/29 00:22:29;;;;;;;14.23;10.57;;;;;;;;;;5220615;28;20029;-73
2022/11/29 00:25:00;;;;;;;14.77;10.77;;;;;;;;;;5220521;28;20018;-74
2022/11/29 00:27:31;;;;;;;13.62;10.74;;;;;;;;;;5219232;28;20037;-73
2022/11/29 00:30:03;;;;;;;11.68;9.90;;;;;;;;;;5220479;28;20027;-74
2022/11/29 00:32:34;;;;;;;13.73;9.95;;;;;;;;;;5219308;28;20033;-73
2022/11/29 00:35:05;;;;;;;13.80;9.55;;;;;;;;;;5220361;28;20097;-74
2022/11/29 00:37:36;;;;;;;13.85;10.35;;;;;;;;;;5220102;28;20068;-74
2022/11/29 00:40:08;;;;;;;13.40;10.27;;;;;;;;;;5219460;28;20030;-74
2022/11/29 00:42:39;;;;;;;12.68;9.88;;;;;;;;;;5219970;28;20061;-74
2022/11/29 00:45:11;;;;;;;17.20;10.43;;;;;;;;;;5220550;28;20025;-73
2022/11/29 00:47:42;;;;;;;13.70;10.90;;;;;;;;;;5218837;28;20148;-73
2022/11/29 00:50:13;;;;;;;17.98;10.68;;;;;;;;;;5220225;28;20528;-74
2022/11/29 00:52:44;;;;;;;13.25;10.13;;;;;;;;;;5219790;28;20473;-74
2022/11/29 00:55:15;;;;;;;13.65;10.80;;;;;;;;;;5219463;28;20113;-73
2022/11/29 00:57:46;;;;;;;18.13;10.90;;;;;;;;;;5219676;28;20060;-75
2022/11/29 01:00:18;;;;;;;16.15;10.55;;;;;;;;;;5219367;28;20097;-75
2022/11/29 01:02:49;;;;;;;13.00;10.60;;;;;;;;;;5219331;28;20041;-75
2022/11/29 01:05:20;;;;;;;17.50;10.98;;;;;;;;;;5219844;28;20018;-75
2022/11/29 01:07:51;;;;;;;15.24;10.88;;;;;;;;;;5219074;28;20029;-76
2022/11/29 01:10:22;;;;;;;17.13;9.98;;;;;;;;;;5219837;28;20117;-75
2022/11/29 01:12:54;;;;;;;16.85;11.43;;;;;;;;;;5219622;28;20018;-74
2022/11/29 01:15:25;;;;;;;17.05;10.45;;;;;;;;;;5218801;28;20021;-75
2022/11/29 01:17:56;;;;;;;17.30;11.25;;;;;;;;;;5219732;28;20065;-75
2022/11/29 01:20:28;;;;;;;14.52;11.00;;;;;;;;;;5219398;28;20038;-75
2022/11/29 01:22:59;;;;;;;15.45;10.50;;;;;;;;;;5218740;28;20415;-75
2022/11/29 01:25:31;;;;;;;16.33;11.50;;;;;;;;;;5219445;28;20026;-75
2022/11/29 01:28:02;;;;;;;13.35;10.63;;;;;;;;;;5219623;28;20021;-75
2022/11/29 01:30:33;;;;;;;18.08;11.00;;;;;;;;;;5218797;28;20045;-73
2022/11/29 01:33:04;;;;;;;14.57;10.48;;;;;;;;;;5219212;28;20050;-73
2022/11/29 01:35:35;;;;;;;16.70;10.57;;;;;;;;;;5218702;28;20109;-73
2022/11/29 01:38:06;;;;;;;18.52;11.05;;;;;;;;;;5219796;28;20033;-73
2022/11/29 01:40:38;;;;;;;15.98;10.05;;;;;;;;;;5223802;28;20533;-73
2022/11/29 01:43:16;;;;;;;14.18;10.32;;;;;;;;;;5223100;28;20025;-73
2022/11/29 01:45:48;;;;;;;20.80;10.65;;;;;;;;;;5223235;28;20112;-73
2022/11/29 01:48:23;;;;;;;16.30;9.93;;;;;;;;;;5223717;28;20491;-73
2022/11/29 01:50:56;;;;;;;12.75;10.32;;;;;;;;;;5222549;28;20022;-74
2022/11/29 01:53:27;;;;;;;14.40;9.50;;;;;;;;;;5223470;28;20044;-73
2022/11/29 01:56:00;;;;;;;15.25;9.98;;;;;;;;;;5223339;28;20022;-73
2022/11/29 01:58:31;;;;;;;13.60;10.30;;;;;;;;;;5222478;28;20069;-73
2022/11/29 02:01:02;;;;;;;17.10;10.43;;;;;;;;;;5223151;28;20095;-74
2022/11/29 02:03:34;;;;;;;14.98;11.38;;;;;;;;;;5223021;28;20045;-73
2022/11/29 02:06:06;;;;;;;20.10;12.23;;;;;;;;;;5223056;28;20022;-73
2022/11/29 02:08:39;;;;;;;18.08;11.20;;;;;;;;;;5223035;28;20018;-73
2022/11/29 02:11:29;;;;;;;22.80;11.90;;;;;;;;;;5222680;28;20481;-73
2022/11/29 02:14:06;;;;;;;20.70;11.07;;;;;;;;;;5223151;28;20124;-73
2022/11/29 02:16:53;;;;;;;22.95;10.73;;;;;;;;;;5222749;28;20029;-74
2022/11/29 02:19:33;;;;;;;14.25;10.60;;;;;;;;;;5222230;28;20021;-74
2022/11/29 02:22:07;;;;;;;17.83;10.27;;;;;;;;;;5222648;28;20038;-74
2022/11/29 02:24:57;;;;;;;21.52;10.57;;;;;;;;;;5222413;28;20022;-73
2022/11/29 02:27:28;;;;;;;21.33;10.63;;;;;;;;;;5222846;28;20109;-73
2022/11/29 02:30:06;;;;;;;22.33;10.00;;;;;;;;;;5222489;28;20120;-74
2022/11/29 02:32:46;;;;;;;16.70;9.23;;;;;;;;;;5221735;28;20304;-74
2022/11/29 02:35:36;;;;;;;24.52;9.63;;;;;;;;;;5221663;28;20095;-74
2022/11/29 02:38:26;;;;;;;19.00;9.40;;;;;;;;;;5221301;28;20091;-73
2022/11/29 02:41:16;;;;;;;21.58;10.43;;;;;;;;;;5220287;28;20120;-75
2022/11/29 02:43:56;;;;;;;18.45;9.52;;;;;;;;;;5220955;28;20037;-74
2022/11/29 02:46:31;;;;;;;19.45;9.38;;;;;;;;;;5220441;28;20025;-74
2022/11/29 02:49:09;;;;;;;20.52;10.07;;;;;;;;;;5221124;28;20370;-74
2022/11/29 02:52:10;;;;;;;20.75;10.52;;;;;;;;;;5221037;28;20061;-74
2022/11/29 02:54:46;;;;;;;16.42;9.50;;;;;;;;;;5132710;28;20448;-74
2022/11/29 02:57:36;;;;;;;14.23;9.10;;;;;;;;;;5221343;28;20025;-74
2022/11/29 03:00:20;;;;;;;17.13;9.77;;;;;;;;;;5220115;28;20034;-74
2022/11/29 03:03:30;;;;;;;11.85;9.50;;;;;;;;;;5220779;28;20117;-72
2022/11/29 03:06:06;;;;;;;15.10;9.73;;;;;;;;;;5138019;29;20028;-74
2022/11/29 03:08:58;;;;;;;13.65;8.65;;;;;;;;;;5137240;29;20083;-73
2022/11/29 03:11:41;;;;;;;18.13;9.15;;;;;;;;;;5197643;28;20079;-73
2022/11/29 03:14:38;;;;;;;14.80;9.10;;;;;;;;;;5220431;28;20042;-74
2022/11/29 03:17:18;;;;;;;9.88;8.93;;;;;;;;;;5190470;28;20030;-73
2022/11/29 03:19:59;;;;;;;12.93;9.07;;;;;;;;;;5220377;28;20030;-74
2022/11/29 03:22:33;;;;;;;12.68;8.90;;;;;;;;;;5220191;28;20030;-73
2022/11/29 03:25:08;;;;;;;10.93;9.23;;;;;;;;;;5220609;28;20091;-74
2022/11/29 03:27:46;;;;;;;14.02;9.00;;;;;;;;;;5220479;28;20018;-74
2022/11/29 03:30:18;;;;;;;10.50;9.50;;;;;;;;;;5220108;28;20017;-74
2022/11/29 03:32:52;;;;;;;17.23;10.07;;;;;;;;;;5183839;28;1038347;-73
2022/11/29 03:35:32;;;;;;;18.67;9.40;;;;;;;;;;5220554;28;20042;-73
2022/11/29 03:38:03;;;;;;;11.73;9.70;;;;;;;;;;5221336;28;20033;-74
2022/11/29 03:40:49;;;;;;;14.07;10.23;;;;;;;;;;5221222;28;20037;-74
2022/11/29 03:43:24;;;;;;;21.00;9.63;;;;;;;;;;5220543;28;20041;-74
2022/11/29 03:46:04;;;;;;;12.45;9.20;;;;;;;;;;5221088;28;20025;-74
2022/11/29 03:48:39;;;;;;;16.85;8.40;;;;;;;;;;5221122;28;20358;-75
2022/11/29 03:51:17;;;;;;;21.52;8.52;;;;;;;;;;5220501;28;20029;-74
2022/11/29 03:54:02;;;;;;;19.30;8.50;;;;;;;;;;5220805;28;20025;-75
2022/11/29 03:56:34;;;;;;;15.55;8.00;;;;;;;;;;5220356;28;20026;-74
2022/11/29 03:59:21;;;;;;;18.90;8.13;;;;;;;;;;5220911;28;20393;-75
2022/11/29 04:02:19;;;;;;;16.90;8.40;;;;;;;;;;5220118;28;20508;-75
2022/11/29 04:05:09;;;;;;;15.63;9.13;;;;;;;;;;5215802;28;20474;-75
2022/11/29 04:07:40;;;;;;;18.10;7.63;;;;;;;;;;5220468;28;20021;-75
2022/11/29 04:10:11;;;;;;;20.00;7.80;;;;;;;;;;5220286;28;20022;-75
2022/11/29 04:13:01;;;;;;;19.50;7.63;;;;;;;;;;5220634;28;20356;-75
2022/11/29 04:15:32;;;;;;;16.33;7.68;;;;;;;;;;5220302;28;20289;-75
2022/11/29 04:18:12;;;;;;;22.66;7.34;;;;;;;;;;5219819;28;20462;-75
2022/11/29 04:20:43;;;;;;;14.15;6.93;;;;;;;;;;5219983;28;20096;-75
2022/11/29 04:23:33;;;;;;;15.76;7.42;;;;;;;;;;5220768;28;20022;-75
2022/11/29 04:26:10;;;;;;;14.88;7.13;;;;;;;;;;5219683;28;20033;-75
2022/11/29 04:28:56;;;;;;;11.50;7.50;;;;;;;;;;5220175;28;20088;-75
2022/11/29 04:31:46;;;;;;;9.15;7.50;;;;;;;;;;5219884;28;20036;-75
2022/11/29 04:34:36;;;;;;;11.25;6.93;;;;;;;;;;5220547;28;20497;-75
2022/11/29 04:37:10;;;;;;;10.68;6.20;;;;;;;;;;5220053;28;20419;-75
2022/11/29 04:39:57;;;;;;;13.77;6.97;;;;;;;;;;5218911;28;20029;-75
2022/11/29 04:42:47;;;;;;;10.20;7.22;;;;;;;;;;5220056;28;20072;-75
2022/11/29 04:45:37;;;;;;;11.38;6.80;;;;;;;;;;5220228;28;20030;-75
2022/11/29 04:48:20;;;;;;;7.55;6.53;;;;;;;;;;5219962;28;20030;-75
2022/11/29 04:50:54;;;;;;;9.98;6.53;;;;;;;;;;5220024;28;20497;-75
2022/11/29 04:53:42;;;;;;;10.10;6.38;;;;;;;;;;5219184;28;20469;-75
2022/11/29 04:56:13;;;;;;;10.90;6.82;;;;;;;;;;5220180;28;20038;-74
2022/11/29 04:59:03;;;;;;;11.32;6.78;;;;;;;;;;5219696;28;20052;-75
2022/11/29 05:01:34;;;;;;;8.13;6.35;;;;;;;;;;5218986;28;20289;-74
2022/11/29 05:04:14;;;;;;;11.82;6.53;;;;;;;;;;5219794;28;20056;-74
2022/11/29 05:06:49;;;;;;;7.93;5.90;;;;;;;;;;5218808;28;20273;-74
2022/11/29 05:09:32;;;;;;;11.13;6.05;;;;;;;;;;5219906;28;20053;-74
2022/11/29 05:12:16;;;;;;;10.52;6.20;;;;;;;;;;5219519;28;20036;-73
2022/11/29 05:15:05;;;;;;;6.45;5.43;;;;;;;;;;5218523;28;20067;-74
2022/11/29 05:17:41;;;;;;;8.73;5.43;;;;;;;;;;5219808;28;20021;-74
2022/11/29 05:20:18;;;;;;;6.40;5.70;;;;;;;;;;5220046;28;20017;-74
2022/11/29 05:23:01;;;;;;;10.32;6.35;;;;;;;;;;5218737;28;20033;-74
2022/11/29 05:25:38;;;;;;;9.63;5.80;;;;;;;;;;5219771;28;20026;-74
2022/11/29 05:28:15;;;;;;;11.88;5.97;;;;;;;;;;5219000;28;20065;-74
2022/11/29 05:31:04;;;;;;;11.98;6.55;;;;;;;;;;5219191;28;20055;-75
2022/11/29 05:33:54;;;;;;;9.73;6.60;;;;;;;;;;5219327;28;20045;-74
2022/11/29 05:36:41;;;;;;;10.75;6.60;;;;;;;;;;5218804;28;20097;-74
2022/11/29 05:39:31;;;;;;;11.07;6.63;;;;;;;;;;5219568;28;20018;-75
2022/11/29 05:42:35;;;;;;;10.52;6.03;;;;;;;;;;5218423;28;20042;-74
2022/11/29 05:45:07;;;;;;;12.80;5.97;;;;;;;;;;5176044;28;20041;-74
2022/11/29 05:47:45;;;;;;;6.70;5.90;;;;;;;;;;5219290;28;20022;-74
2022/11/29 05:50:35;;;;;;;11.18;6.43;;;;;;;;;;5218913;28;20029;-74
2022/11/29 05:53:12;;;;;;;14.80;6.47;;;;;;;;;;5219304;28;20026;-74
2022/11/29 05:56:02;;;;;;;13.00;6.55;;;;;;;;;;5218431;28;20030;-74
2022/11/29 05:58:36;;;;;;;16.30;7.32;;;;;;;;;;5219135;28;20465;-74
2022/11/29 06:01:13;;;;;;;17.92;7.05;;;;;;;;;;5219066;28;20065;-74
2022/11/29 06:03:52;;;;;;;10.90;7.18;;;;;;;;;;5218202;28;20022;-75
2022/11/29 06:06:29;;;;;;;14.05;7.07;;;;;;;;;;5219245;28;20052;-74
2022/11/29 06:09:07;;;;;;;11.07;7.43;;;;;;;;;;5218936;28;20038;-74
2022/11/29 06:11:43;;;;;;;15.80;7.05;;;;;;;;;;5218066;28;20049;-76
2022/11/29 06:14:18;;;;;;;11.57;7.32;;;;;;;;;;5201800;28;20013;-75
2022/11/29 06:16:55;;;;;;;15.27;8.10;;;;;;;;;;5218059;28;20026;-75
2022/11/29 06:19:39;;;;;;;13.32;8.23;;;;;;;;;;5219147;28;20045;-74
2022/11/29 06:22:28;;;;;;;20.67;8.07;;;;;;;;;;5219506;28;20038;-74
2022/11/29 06:25:11;;;;;;;14.27;7.72;;;;;;;;;;5220015;28;20030;-74
2022/11/29 06:27:42;;;;;;;17.25;8.75;;;;;;;;;;5222273;28;20036;-74
2022/11/29 06:30:15;;;;;;;16.08;9.00;;;;;;;;;;5223136;28;20493;-74
2022/11/29 06:32:50;;;;;;;13.63;8.35;;;;;;;;;;5221589;28;20014;-74
2022/11/29 06:35:34;;;;;;;21.13;8.48;;;;;;;;;;5222589;28;20496;-73
2022/11/29 06:38:11;;;;;;;20.38;9.15;;;;;;;;;;5221364;28;20021;-73
2022/11/29 06:40:42;;;;;;;16.25;9.35;;;;;;;;;;5222253;28;20022;-74
2022/11/29 06:43:14;;;;;;;21.65;8.73;;;;;;;;;;5222933;28;20041;-74
2022/11/29 06:45:50;;;;;;;11.52;8.70;;;;;;;;;;5221442;28;20029;-75
2022/11/29 06:48:24;;;;;;;9.88;8.35;;;;;;;;;;5222376;28;20025;-74
2022/11/29 06:50:59;;;;;;;14.00;7.95;;;;;;;;;;5222586;28;20368;-74
2022/11/29 06:53:45;;;;;;;13.82;8.27;;;;;;;;;;5221687;28;20425;-75
2022/11/29 06:56:28;;;;;;;14.80;8.20;;;;;;;;;;5222568;28;20109;-75
2022/11/29 06:59:17;;;;;;;17.65;8.73;;;;;;;;;;5221466;28;20332;-75
2022/11/29 07:01:49;;;;;;;12.65;8.75;;;;;;;;;;5221891;28;20037;-75
2022/11/29 07:04:35;;;;;;;24.70;8.66;;;;;;;;;;5222539;28;20033;-75
2022/11/29 07:07:12;;;;;;;15.35;9.13;;;;;;;;;;5221164;28;20358;-75
2022/11/29 07:09:44;;;;;;;11.52;8.88;;;;;;;;;;5220804;28;20041;-73
2022/11/29 07:12:16;;;;;;;14.18;8.82;;;;;;;;;;5222149;28;20026;-75
2022/11/29 07:14:47;;;;;;;10.23;8.73;;;;;;;;;;5220791;28;20025;-73
2022/11/29 07:17:38;;;;;;;10.80;8.82;;;;;;;;;;5222260;28;20031;-74
2022/11/29 07:20:25;;;;;;;11.70;9.07;;;;;;;;;;5221420;28;20520;-74
2022/11/29 07:23:03;;;;;;;11.57;9.30;;;;;;;;;;5223391;28;20026;-75
2022/11/29 07:25:53;;;;;;;12.48;9.35;;;;;;;;;;5222481;28;20142;-75
2022/11/29 07:28:24;;;;;;;16.13;9.10;;;;;;;;;;5220463;28;20041;-76
2022/11/29 07:31:01;;;;;;;11.52;9.18;;;;;;;;;;5221268;28;20420;-75
2022/11/29 07:33:46;;;;;;;12.70;9.10;;;;;;;;;;5221293;28;20561;-76
2022/11/29 07:36:24;;;;;;;13.77;9.52;;;;;;;;;;5219503;28;20393;-76
2022/11/29 07:39:02;;;;;;;10.30;9.10;;;;;;;;;;5221279;28;20045;-75
2022/11/29 07:41:40;;;;;;;12.20;9.05;;;;;;;;;;5202747;28;20030;-75
2022/11/29 07:44:24;;;;;;;12.10;8.77;;;;;;;;;;5221609;28;20100;-74
2022/11/29 07:46:55;;;;;;;10.65;8.40;;;;;;;;;;5220842;28;20040;-75
2022/11/29 07:49:26;;;;;;;17.00;9.86;;;;;;;;;;5220091;28;20458;-76
2022/11/29 07:51:57;;;;;;;14.70;10.40;;;;;;;;;;5220550;28;20502;-75
2022/11/29 07:54:28;;;;;;;16.42;9.35;;;;;;;;;;5239011;28;20030;-75
2022/11/29 07:57:00;;;;;;;15.45;9.52;;;;;;;;;;5240537;28;20025;-74
2022/11/29 07:59:31;;;;;;;12.65;8.82;;;;;;;;;;5241237;28;20032;-74
2022/11/29 08:02:02;;;;;;;18.05;11.15;;;;;;;;;;5241206;28;20063;-75
2022/11/29 08:04:33;;;;;;;16.38;9.85;;;;;;;;;;5240581;28;20465;-74
2022/11/29 08:07:04;;;;;;;12.26;8.80;;;;;;;;;;5241423;28;20028;-73
2022/11/29 08:09:36;;;;;;;16.63;11.02;;;;;;;;;;5240384;28;20027;-74
2022/11/29 08:12:07;;;;;;;17.02;10.42;;;;;;;;;;5240973;28;20024;-75
2022/11/29 08:14:38;;;;;;;15.35;9.10;;;;;;;;;;5241187;28;20108;-73
2022/11/29 08:17:09;;;;;;;19.27;10.20;;;;;;;;;;5240700;28;20026;-75
2022/11/29 08:19:40;;;;;;;20.65;11.65;;;;;;;;;;5240788;28;20028;-76
2022/11/29 08:22:11;;;;;;;18.30;11.36;;;;;;;;;;5240817;28;20045;-73
2022/11/29 08:24:43;;;;;;;19.30;11.85;;;;;;;;;;5239719;28;20021;-74
2022/11/29 08:27:14;;;;;;;22.13;11.75;;;;;;;;;;5241323;28;20026;-74
2022/11/29 08:29:45;;;;;;;18.77;11.48;;;;;;;;;;5240683;28;20049;-73
2022/11/29 08:32:16;;;;;;;17.75;11.10;;;;;;;;;;5240133;28;20028;-74
2022/11/29 08:34:48;;;;;;;20.17;12.15;;;;;;;;;;5240258;28;20080;-74
2022/11/29 08:37:19;;;;;;;21.42;13.05;;;;;;;;;;5241156;28;20099;-73
2022/11/29 08:39:50;;;;;;;30.90;13.23;;;;;;;;;;5239532;28;20021;-72
2022/11/29 08:42:21;;;;;;;20.25;12.40;;;;;;;;;;5240369;28;20101;-75
2022/11/29 08:44:52;;;;;;;20.02;10.60;;;;;;;;;;5239934;28;20473;-75
2022/11/29 08:47:36;;;;;;;21.90;12.38;;;;;;;;;;5240125;28;20072;-75
2022/11/29 08:50:13;;;;;;;21.05;12.00;;;;;;;;;;5240504;28;20025;-75
2022/11/29 08:55:36;;;;;;;26.00;12.18;;;;;;;;;;5240354;28;20025;-76
2022/11/29 08:58:12;;;;;;;20.25;11.75;;;;;;;;;;5240411;28;20052;-76
2022/11/29 09:00:44;;;;;;;22.55;11.75;;;;;;;;;;5239127;28;20025;-76
2022/11/29 09:06:07;;;;;;;23.88;11.32;;;;;;;;;;5239523;28;20041;-76
2022/11/29 09:08:39;;;;;;;33.47;13.05;;;;;;;;;;5239962;28;20032;-75
2022/11/29 09:11:12;;;;;;;26.95;12.05;;;;;;;;;;5240553;28;20017;-76
2022/11/29 09:13:44;;;;;;;29.15;13.57;;;;;;;;;;5239051;28;20098;-76
2022/11/29 09:16:17;;;;;;;24.27;12.38;;;;;;;;;;5240262;28;20025;-75
2022/11/29 09:18:48;;;;;;;30.80;12.82;;;;;;;;;;5239898;28;20017;-75
2022/11/29 09:21:20;;;;;;;34.20;13.98;;;;;;;;;;5240838;28;20037;-76
2022/11/29 09:23:58;;;;;;;42.15;14.52;;;;;;;;;;5244576;28;20025;-75
2022/11/29 09:26:31;;;;;;;25.08;12.80;;;;;;;;;;5240882;28;20029;-76
2022/11/29 09:29:03;;;;;;;26.33;13.73;;;;;;;;;;5239356;28;20092;-76
2022/11/29 09:31:35;;;;;;;23.75;12.80;;;;;;;;;;5239916;28;20026;-76
2022/11/29 09:34:06;;;;;;;27.77;11.82;;;;;;;;;;5238646;28;20512;-77
2022/11/29 09:36:37;;;;;;;34.38;12.45;;;;;;;;;;5239895;28;20021;-77
2022/11/29 09:39:11;;;;;;;25.88;11.90;;;;;;;;;;5239988;28;20053;-75
2022/11/29 09:42:00;;;;;;;28.50;13.88;;;;;;;;;;5223958;28;20045;-78
2022/11/29 09:44:42;;;;;;;27.88;12.98;;;;;;;;;;5218654;28;20029;-79
2022/11/29 09:47:22;;;;;;;29.38;12.90;;;;;;;;;;5219316;28;20017;-79
2022/11/29 09:49:57;;;;;;;29.73;13.10;;;;;;;;;;5230203;28;20029;-78
2022/11/29 09:52:35;;;;;;;34.83;13.45;;;;;;;;;;5224588;28;20366;-79
2022/11/29 09:55:08;;;;;;;24.23;12.60;;;;;;;;;;5218312;28;20025;-78
2022/11/29 09:57:42;;;;;;;31.60;12.68;;;;;;;;;;5218631;28;20917;-78
2022/11/29 10:00:15;;;;;;;24.27;12.10;;;;;;;;;;5221526;28;20061;-77
2022/11/29 10:02:51;;;;;;;17.00;11.73;;;;;;;;;;5221822;28;20109;-78
2022/11/29 10:05:28;;;;;;;22.83;12.23;;;;;;;;;;5222790;28;20018;-78
2022/11/29 10:08:15;;;;;;;28.15;12.38;;;;;;;;;;5222997;28;20045;-78
2022/11/29 10:10:47;;;;;;;22.65;12.15;;;;;;;;;;5221455;28;20070;-78
2022/11/29 10:13:28;;;;;;;22.08;11.35;;;;;;;;;;5222874;28;20083;-77
2022/11/29 10:16:17;;;;;;;20.70;11.90;;;;;;;;;;5221711;28;20445;-77
2022/11/29 10:18:50;;;;;;;21.23;11.32;;;;;;;;;;5222302;28;20125;-77
2022/11/29 10:21:24;;;;;;;24.88;11.90;;;;;;;;;;5222672;28;20036;-77
2022/11/29 10:23:58;;;;;;;20.85;12.35;;;;;;;;;;5221652;28;20010;-77
2022/11/29 10:26:29;;;;;;;23.23;12.35;;;;;;;;;;5221620;28;20032;-76
2022/11/29 10:29:00;;;;;;;26.20;11.68;;;;;;;;;;5222381;28;20529;-77
2022/11/29 10:31:33;;;;;;;26.98;11.55;;;;;;;;;;5221673;28;20026;-77
2022/11/29 10:34:15;;;;;;;24.50;12.10;;;;;;;;;;5221995;28;20046;-77
2022/11/29 10:36:52;;;;;;;25.20;11.88;;;;;;;;;;5221893;28;20072;-78
2022/11/29 10:39:43;;;;;;;21.35;11.75;;;;;;;;;;5221497;28;20029;-77
2022/11/29 10:42:47;;;;;;;23.10;10.48;;;;;;;;;;5222501;28;20037;-77
2022/11/29 10:45:14;;;;;;;33.85;11.50;;;;;;;;;;5221411;28;20034;-78
2022/11/29 10:47:46;;;;;;;20.27;10.45;;;;;;;;;;5221953;28;20520;-71
2022/11/29 10:50:21;;;;;;;23.40;10.85;;;;;;;;;;5222361;28;20067;-73
2022/11/29 10:52:54;;;;;;;25.00;12.15;;;;;;;;;;5221344;28;20026;-73
2022/11/29 10:55:26;;;;;;;22.00;11.98;;;;;;;;;;5222061;28;20053;-73
2022/11/29 10:58:11;;;;;;;31.00;11.98;;;;;;;;;;5222085;28;20098;-74
2022/11/29 11:00:49;;;;;;;30.75;11.88;;;;;;;;;;5221433;28;20041;-74
2022/11/29 11:03:26;;;;;;;27.52;10.95;;;;;;;;;;5222023;28;20033;-74
2022/11/29 11:05:58;;;;;;;20.13;9.35;;;;;;;;;;5221097;28;20484;-71
2022/11/29 11:08:30;;;;;;;16.55;9.75;;;;;;;;;;5221880;28;20569;-74
2022/11/29 11:11:03;;;;;;;36.53;11.60;;;;;;;;;;5221447;28;20543;-71
2022/11/29 11:13:35;;;;;;;27.27;10.93;;;;;;;;;;5220975;28;20442;-72
2022/11/29 11:16:12;;;;;;;27.45;11.27;;;;;;;;;;5221695;28;20030;-71
2022/11/29 11:18:44;;;;;;;30.65;10.90;;;;;;;;;;5221277;28;20045;-72
2022/11/29 11:21:16;;;;;;;21.15;10.32;;;;;;;;;;5220527;28;20030;-73
2022/11/29 11:23:53;;;;;;;24.50;10.80;;;;;;;;;;5221788;28;20018;-73
2022/11/29 11:26:25;;;;;;;18.00;10.90;;;;;;;;;;5220937;28;20358;-73
2022/11/29 11:28:58;;;;;;;28.55;11.75;;;;;;;;;;5221233;28;20017;-73
2022/11/29 11:31:33;;;;;;;23.52;11.00;;;;;;;;;;5221685;28;20028;-73
2022/11/29 11:34:24;;;;;;;25.63;10.88;;;;;;;;;;5220265;28;20112;-73
2022/11/29 11:37:13;;;;;;;24.95;11.05;;;;;;;;;;5221432;28;20022;-73
2022/11/29 11:39:45;;;;;;;17.85;10.60;;;;;;;;;;5220901;28;20512;-73
2022/11/29 11:42:37;;;;;;;21.58;10.75;;;;;;;;;;5220546;28;20030;-73
2022/11/29 11:45:08;;;;;;;18.40;10.80;;;;;;;;;;5221251;28;20017;-73
2022/11/29 11:47:47;;;;;;;24.17;11.32;;;;;;;;;;5220102;28;20456;-72
2022/11/29 11:50:26;;;;;;;18.65;10.80;;;;;;;;;;5221276;28;20025;-73
2022/11/29 11:53:03;;;;;;;24.42;11.38;;;;;;;;;;5221260;28;20521;-73
2022/11/29 11:55:38;;;;;;;25.58;12.40;;;;;;;;;;5220062;28;20010;-70
2022/11/29 11:58:12;;;;;;;19.20;10.85;;;;;;;;;;5220712;28;20029;-75
2022/11/29 12:00:43;;;;;;;15.80;11.60;;;;;;;;;;5220203;28;20423;-74
2022/11/29 12:03:33;;;;;;;17.75;10.90;;;;;;;;;;5220299;28;20022;-74
2022/11/29 12:06:04;;;;;;;16.83;11.55;;;;;;;;;;5220623;28;20277;-74
2022/11/29 12:08:36;;;;;;;18.02;12.05;;;;;;;;;;5220011;28;20453;-74
2022/11/29 12:11:10;;;;;;;19.13;11.98;;;;;;;;;;5220492;28;20260;-74
2022/11/29 12:13:45;;;;;;;19.85;12.13;;;;;;;;;;5220303;28;20030;-74
2022/11/29 12:16:26;;;;;;;22.70;12.02;;;;;;;;;;5219386;28;20076;-73
2022/11/29 12:18:59;;;;;;;23.73;12.55;;;;;;;;;;5220521;28;20496;-73
2022/11/29 12:21:33;;;;;;;23.65;12.82;;;;;;;;;;5219815;28;20042;-74
2022/11/29 12:24:15;;;;;;;28.63;13.77;;;;;;;;;;5219067;28;20021;-73
2022/11/29 12:26:46;;;;;;;22.08;12.05;;;;;;;;;;5220008;28;20075;-73
2022/11/29 12:29:18;;;;;;;25.08;14.20;;;;;;;;;;5220420;28;20022;-74
2022/11/29 12:32:13;;;;;;;26.70;15.02;;;;;;;;;;5218678;28;20457;-73
2022/11/29 12:34:51;;;;;;;24.48;13.20;;;;;;;;;;5219580;28;20054;-74
2022/11/29 12:37:36;;;;;;;28.30;14.57;;;;;;;;;;5219385;28;20018;-74
2022/11/29 12:40:16;;;;;;;25.40;15.02;;;;;;;;;;5220145;28;20021;-74
2022/11/29 12:43:02;;;;;;;24.55;15.30;;;;;;;;;;5219591;28;20056;-74
2022/11/29 12:45:39;;;;;;;27.80;15.60;;;;;;;;;;5218668;28;20056;-73
2022/11/29 12:48:29;;;;;;;38.13;17.02;;;;;;;;;;5219601;28;20425;-73
2022/11/29 12:51:29;;;;;;;31.50;16.73;;;;;;;;;;5219137;28;20022;-73
2022/11/29 12:54:03;;;;;;;29.67;16.17;;;;;;;;;;5132679;28;20038;-75
2022/11/29 12:56:52;;;;;;;32.05;17.85;;;;;;;;;;5219875;28;20120;-74
2022/11/29 12:59:23;;;;;;;;;;;;;;;;;;5229675;28;20103;-75
2022/11/29 13:02:07;;;;;;;32.47;15.65;;;;;;;;;;5237300;28;19935;-74
2022/11/29 13:04:43;;;;;;;33.85;17.55;;;;;;;;;;5239840;28;20021;-74
2022/11/29 13:07:22;;;;;;;34.78;18.17;;;;;;;;;;5240313;28;20496;-74
2022/11/29 13:09:58;;;;;;;35.92;19.00;;;;;;;;;;5239525;28;20032;-74
2022/11/29 13:12:32;;;;;;;29.73;18.15;;;;;;;;;;5239124;28;20034;-74
2022/11/29 13:15:12;;;;;;;34.97;19.30;;;;;;;;;;5239825;28;20037;-74
2022/11/29 13:17:46;;;;;;;31.58;19.38;;;;;;;;;;5239596;28;20021;-75
2022/11/29 13:20:37;;;;;;;42.97;21.75;;;;;;;;;;5239474;28;20381;-75
2022/11/29 13:23:25;;;;;;;41.33;21.17;;;;;;;;;;5240401;28;20094;-74
2022/11/29 13:25:58;;;;;;;38.30;21.60;;;;;;;;;;5239502;28;20013;-75
2022/11/29 13:28:31;;;;;;;45.53;25.10;;;;;;;;;;5239559;28;20022;-75
2022/11/29 13:31:21;;;;;;;43.10;24.40;;;;;;;;;;5240040;28;20419;-74
2022/11/29 13:34:12;;;;;;;39.72;23.83;;;;;;;;;;5240692;28;20045;-74
2022/11/29 13:36:43;;;;;;;43.85;23.95;;;;;;;;;;5243327;28;20045;-74
2022/11/29 13:39:33;;;;;;;41.60;24.58;;;;;;;;;;5244602;28;20050;-74
2022/11/29 13:42:10;;;;;;;42.92;23.73;;;;;;;;;;5243364;28;20044;-74
2022/11/29 13:44:44;;;;;;;39.00;24.45;;;;;;;;;;5243697;28;20045;-74
2022/11/29 13:47:16;;;;;;;41.38;24.58;;;;;;;;;;5243383;28;20031;-73
2022/11/29 13:49:53;;;;;;;39.28;23.00;;;;;;;;;;5243628;28;20021;-74
2022/11/29 13:52:27;;;;;;;41.70;24.60;;;;;;;;;;5243946;28;20025;-73
2022/11/29 13:55:04;;;;;;;43.05;25.08;;;;;;;;;;5243084;28;20395;-74
2022/11/29 13:57:52;;;;;;;46.03;25.02;;;;;;;;;;5243704;28;20056;-74
2022/11/29 14:00:30;;;;;;;41.20;24.40;;;;;;;;;;5243741;28;20025;-74
2022/11/29 14:03:19;;;;;;;41.33;24.98;;;;;;;;;;5243150;28;20490;-73
2022/11/29 14:05:52;;;;;;;44.08;26.17;;;;;;;;;;5243297;28;20385;-74
2022/11/29 14:08:31;;;;;;;43.15;25.38;;;;;;;;;;5242439;28;20239;-74
2022/11/29 14:11:05;;;;;;;41.92;24.70;;;;;;;;;;5243401;28;20025;-76
2022/11/29 14:13:49;;;;;;;41.30;24.42;;;;;;;;;;5243448;28;20025;-76
2022/11/29 14:16:58;;;;;;;45.30;26.00;;;;;;;;;;5242793;28;20481;-77
2022/11/29 14:19:31;;;;;;;40.60;24.38;;;;;;;;;;5139735;29;20392;-75
2022/11/29 14:22:05;;;;;;;41.33;25.25;;;;;;;;;;5139562;29;20483;-76
2022/11/29 14:24:36;;;;;;;42.95;25.75;;;;;;;;;;5200133;28;20536;-76
2022/11/29 14:27:08;;;;;;;43.42;25.55;;;;;;;;;;5243439;28;20144;-77
2022/11/29 14:29:49;;;;;;;43.72;25.60;;;;;;;;;;5242291;28;20319;-77
2022/11/29 14:32:38;;;;;;;43.40;24.98;;;;;;;;;;5243322;28;20082;-76
2022/11/29 14:35:10;;;;;;;42.20;23.38;;;;;;;;;;5243378;28;20041;-76
2022/11/29 14:37:50;;;;;;;38.95;23.95;;;;;;;;;;5241864;28;20064;-76
2022/11/29 14:40:27;;;;;;;35.42;21.42;;;;;;;;;;5243125;28;20053;-76
2022/11/29 14:43:00;;;;;;;33.42;20.73;;;;;;;;;;5242826;28;20425;-75
2022/11/29 14:45:32;;;;;;;36.42;22.40;;;;;;;;;;5241162;28;20112;-75
2022/11/29 14:48:03;;;;;;;32.70;19.55;;;;;;;;;;5242686;28;20091;-75
2022/11/29 14:50:38;;;;;;;33.65;20.17;;;;;;;;;;5241845;28;20021;-75
2022/11/29 14:53:31;;;;;;;31.55;18.98;;;;;;;;;;5242753;28;20084;-75
2022/11/29 14:56:21;;;;;;;31.17;19.83;;;;;;;;;;5242322;28;20020;-74
2022/11/29 14:59:11;;;;;;;30.75;17.92;;;;;;;;;;5241878;28;20022;-75
2022/11/29 15:01:43;;;;;;;29.35;17.88;;;;;;;;;;5242273;28;20389;-75
2022/11/29 15:04:14;;;;;;;28.55;17.75;;;;;;;;;;5242161;28;20021;-75
2022/11/29 15:06:48;;;;;;;30.63;18.83;;;;;;;;;;5242018;28;20032;-76
2022/11/29 15:09:21;;;;;;;30.17;18.77;;;;;;;;;;5242830;28;20021;-75
2022/11/29 15:11:57;;;;;;;29.42;17.08;;;;;;;;;;5241527;28;20079;-75
2022/11/29 15:14:47;;;;;;;32.03;19.33;;;;;;;;;;5242600;28;20108;-75
2022/11/29 15:17:25;;;;;;;27.92;18.02;;;;;;;;;;5243036;28;20376;-74
2022/11/29 15:20:01;;;;;;;32.90;18.52;;;;;;;;;;5241709;28;20029;-75
2022/11/29 15:22:41;;;;;;;27.77;17.15;;;;;;;;;;5244901;28;20068;-74
2022/11/29 15:25:15;;;;;;;32.70;19.38;;;;;;;;;;5244411;28;20383;-74
2022/11/29 15:27:50;;;;;;;32.05;19.13;;;;;;;;;;5241187;28;20084;-74
2022/11/29 15:30:30;;;;;;;31.48;18.73;;;;;;;;;;5241928;28;20100;-75